sensor_id;sensor_type;location;lat;lon;timestamp;P1;durP1;ratioP1;P2;durP2;ratioP2
55053;SDS011;40954;45.668;18.980;2023-04-06T00:01:06;21.27;;;14.18;;
55053;SDS011;40954;45.668;18.980;2023-04-06T00:03:32;21.27;;;15.15;;
55053;SDS011;40954;45.668;18.980;2023-04-06T00:05:58;18.17;;;13.15;;
55053;SDS011;40954;45.668;18.980;2023-04-06T00:08:25;19.35;;;13.13;;
55053;SDS011;40954;45.668;18.980;2023-04-06T00:10:51;16.77;;;12.20;;
55053;SDS011;40954;45.668;18.980;2023-04-06T00:13:17;19.23;;;12.43;;
55053;SDS011;40954;45.668;18.980;2023-04-06T00:15:43;18.60;;;12.15;;
55053;SDS011;40954;45.668;18.980;2023-04-06T00:18:09;15.45;;;11.07;;
55053;SDS011;40954;45.668;18.980;2023-04-06T00:20:35;13.95;;;10.95;;
55053;SDS011;40954;45.668;18.980;2023-04-06T00:23:01;16.15;;;10.82;;
55053;SDS011;40954;45.668;18.980;2023-04-06T00:25:27;18.73;;;10.93;;
55053;SDS011;40954;45.668;18.980;2023-04-06T00:27:53;15.50;;;11.15;;
55053;SDS011;40954;45.668;18.980;2023-04-06T00:30:19;13.48;;;10.75;;
55053;SDS011;40954;45.668;18.980;2023-04-06T00:32:45;15.75;;;10.70;;
55053;SDS011;40954;45.668;18.980;2023-04-06T00:35:11;15.20;;;10.93;;
55053;SDS011;40954;45.668;18.980;2023-04-06T00:37:38;15.27;;;10.65;;
55053;SDS011;40954;45.668;18.980;2023-04-06T00:40:04;16.48;;;11.23;;
55053;SDS011;40954;45.668;18.980;2023-04-06T00:42:30;16.77;;;10.75;;
55053;SDS011;40954;45.668;18.980;2023-04-06T00:44:57;15.95;;;10.98;;
55053;SDS011;40954;45.668;18.980;2023-04-06T00:47:23;18.25;;;10.93;;
55053;SDS011;40954;45.668;18.980;2023-04-06T00:49:56;15.00;;;10.70;;
55053;SDS011;40954;45.668;18.980;2023-04-06T00:52:22;15.38;;;9.90;;
55053;SDS011;40954;45.668;18.980;2023-04-06T00:54:48;15.20;;;9.95;;
55053;SDS011;40954;45.668;18.980;2023-04-06T00:57:14;16.15;;;10.93;;
55053;SDS011;40954;45.668;18.980;2023-04-06T00:59:40;21.40;;;11.95;;
55053;SDS011;40954;45.668;18.980;2023-04-06T01:02:07;13.88;;;9.88;;
55053;SDS011;40954;45.668;18.980;2023-04-06T01:04:33;13.35;;;9.48;;
55053;SDS011;40954;45.668;18.980;2023-04-06T01:06:59;16.40;;;9.90;;
55053;SDS011;40954;45.668;18.980;2023-04-06T01:09:28;15.65;;;9.43;;
55053;SDS011;40954;45.668;18.980;2023-04-06T01:11:55;17.08;;;9.88;;
55053;SDS011;40954;45.668;18.980;2023-04-06T01:14:22;16.80;;;10.07;;
55053;SDS011;40954;45.668;18.980;2023-04-06T01:16:48;17.05;;;9.45;;
55053;SDS011;40954;45.668;18.980;2023-04-06T01:19:14;18.45;;;9.15;;
55053;SDS011;40954;45.668;18.980;2023-04-06T01:21:41;13.25;;;9.10;;
55053;SDS011;40954;45.668;18.980;2023-04-06T01:24:07;20.40;;;10.05;;
55053;SDS011;40954;45.668;18.980;2023-04-06T01:26:34;13.68;;;9.30;;
55053;SDS011;40954;45.668;18.980;2023-04-06T01:29:00;12.20;;;8.60;;
55053;SDS011;40954;45.668;18.980;2023-04-06T01:31:27;11.55;;;8.80;;
55053;SDS011;40954;45.668;18.980;2023-04-06T01:33:53;16.55;;;9.68;;
55053;SDS011;40954;45.668;18.980;2023-04-06T01:36:19;11.20;;;8.98;;
55053;SDS011;40954;45.668;18.980;2023-04-06T01:38:46;15.10;;;8.85;;
55053;SDS011;40954;45.668;18.980;2023-04-06T01:41:12;14.43;;;8.32;;
55053;SDS011;40954;45.668;18.980;2023-04-06T01:43:38;14.05;;;9.00;;
55053;SDS011;40954;45.668;18.980;2023-04-06T01:46:04;12.68;;;8.20;;
55053;SDS011;40954;45.668;18.980;2023-04-06T01:48:31;13.75;;;8.90;;
55053;SDS011;40954;45.668;18.980;2023-04-06T01:50:57;13.57;;;8.93;;
55053;SDS011;40954;45.668;18.980;2023-04-06T01:53:23;13.63;;;8.93;;
55053;SDS011;40954;45.668;18.980;2023-04-06T01:55:49;16.38;;;8.95;;
55053;SDS011;40954;45.668;18.980;2023-04-06T01:58:15;13.65;;;9.27;;
55053;SDS011;40954;45.668;18.980;2023-04-06T02:00:41;11.23;;;7.97;;
55053;SDS011;40954;45.668;18.980;2023-04-06T02:03:07;11.63;;;8.75;;
55053;SDS011;40954;45.668;18.980;2023-04-06T02:05:34;13.75;;;8.02;;
55053;SDS011;40954;45.668;18.980;2023-04-06T02:08:03;13.70;;;8.00;;
55053;SDS011;40954;45.668;18.980;2023-04-06T02:10:30;14.85;;;8.52;;
55053;SDS011;40954;45.668;18.980;2023-04-06T02:12:56;14.50;;;8.43;;
55053;SDS011;40954;45.668;18.980;2023-04-06T02:15:22;12.48;;;8.35;;
55053;SDS011;40954;45.668;18.980;2023-04-06T02:17:48;13.57;;;8.82;;
55053;SDS011;40954;45.668;18.980;2023-04-06T02:20:14;9.40;;;7.63;;
55053;SDS011;40954;45.668;18.980;2023-04-06T02:22:40;11.70;;;7.85;;
55053;SDS011;40954;45.668;18.980;2023-04-06T02:25:06;12.10;;;8.63;;
55053;SDS011;40954;45.668;18.980;2023-04-06T02:27:32;11.50;;;8.23;;
55053;SDS011;40954;45.668;18.980;2023-04-06T02:29:58;13.35;;;8.45;;
55053;SDS011;40954;45.668;18.980;2023-04-06T02:32:25;12.25;;;7.78;;
55053;SDS011;40954;45.668;18.980;2023-04-06T02:34:51;13.07;;;8.73;;
55053;SDS011;40954;45.668;18.980;2023-04-06T02:37:17;13.70;;;7.85;;
55053;SDS011;40954;45.668;18.980;2023-04-06T02:39:43;13.60;;;9.05;;
55053;SDS011;40954;45.668;18.980;2023-04-06T02:42:09;12.77;;;8.15;;
55053;SDS011;40954;45.668;18.980;2023-04-06T02:44:35;12.27;;;8.52;;
55053;SDS011;40954;45.668;18.980;2023-04-06T02:47:01;16.52;;;8.75;;
55053;SDS011;40954;45.668;18.980;2023-04-06T02:49:27;11.55;;;8.32;;
55053;SDS011;40954;45.668;18.980;2023-04-06T02:51:53;15.90;;;9.27;;
55053;SDS011;40954;45.668;18.980;2023-04-06T02:54:19;18.42;;;10.25;;
55053;SDS011;40954;45.668;18.980;2023-04-06T02:56:45;26.52;;;14.32;;
55053;SDS011;40954;45.668;18.980;2023-04-06T02:59:11;21.02;;;11.32;;
55053;SDS011;40954;45.668;18.980;2023-04-06T03:01:37;19.15;;;10.52;;
55053;SDS011;40954;45.668;18.980;2023-04-06T03:04:03;11.40;;;7.82;;
55053;SDS011;40954;45.668;18.980;2023-04-06T03:06:29;10.57;;;8.00;;
55053;SDS011;40954;45.668;18.980;2023-04-06T03:08:56;13.10;;;8.65;;
55053;SDS011;40954;45.668;18.980;2023-04-06T03:11:22;19.45;;;8.88;;
55053;SDS011;40954;45.668;18.980;2023-04-06T03:13:48;12.82;;;8.25;;
55053;SDS011;40954;45.668;18.980;2023-04-06T03:16:14;14.32;;;8.38;;
55053;SDS011;40954;45.668;18.980;2023-04-06T03:18:40;18.20;;;10.90;;
55053;SDS011;40954;45.668;18.980;2023-04-06T03:21:06;12.68;;;9.13;;
55053;SDS011;40954;45.668;18.980;2023-04-06T03:23:32;15.20;;;8.93;;
55053;SDS011;40954;45.668;18.980;2023-04-06T03:25:58;15.50;;;9.30;;
55053;SDS011;40954;45.668;18.980;2023-04-06T03:28:24;11.93;;;8.77;;
55053;SDS011;40954;45.668;18.980;2023-04-06T03:30:50;13.80;;;8.85;;
55053;SDS011;40954;45.668;18.980;2023-04-06T03:33:16;11.90;;;9.15;;
55053;SDS011;40954;45.668;18.980;2023-04-06T03:35:42;17.58;;;9.50;;
55053;SDS011;40954;45.668;18.980;2023-04-06T03:38:08;16.75;;;9.75;;
55053;SDS011;40954;45.668;18.980;2023-04-06T03:40:34;12.55;;;8.65;;
55053;SDS011;40954;45.668;18.980;2023-04-06T03:43:00;21.52;;;12.13;;
55053;SDS011;40954;45.668;18.980;2023-04-06T03:45:27;15.50;;;10.18;;
55053;SDS011;40954;45.668;18.980;2023-04-06T03:47:53;14.77;;;8.27;;
55053;SDS011;40954;45.668;18.980;2023-04-06T03:50:19;14.38;;;8.82;;
55053;SDS011;40954;45.668;18.980;2023-04-06T03:52:45;14.25;;;8.75;;
55053;SDS011;40954;45.668;18.980;2023-04-06T03:55:11;11.38;;;8.80;;
55053;SDS011;40954;45.668;18.980;2023-04-06T03:57:37;17.75;;;9.20;;
55053;SDS011;40954;45.668;18.980;2023-04-06T04:00:03;14.50;;;8.88;;
55053;SDS011;40954;45.668;18.980;2023-04-06T04:02:29;14.70;;;9.50;;
55053;SDS011;40954;45.668;18.980;2023-04-06T04:04:55;13.38;;;9.15;;
55053;SDS011;40954;45.668;18.980;2023-04-06T04:07:21;13.93;;;9.38;;
55053;SDS011;40954;45.668;18.980;2023-04-06T04:09:47;14.35;;;9.07;;
55053;SDS011;40954;45.668;18.980;2023-04-06T04:12:13;14.32;;;9.07;;
55053;SDS011;40954;45.668;18.980;2023-04-06T04:14:41;17.05;;;9.90;;
55053;SDS011;40954;45.668;18.980;2023-04-06T04:17:08;14.77;;;10.07;;
55053;SDS011;40954;45.668;18.980;2023-04-06T04:19:35;19.67;;;9.98;;
55053;SDS011;40954;45.668;18.980;2023-04-06T04:22:01;14.40;;;9.18;;
55053;SDS011;40954;45.668;18.980;2023-04-06T04:24:29;11.75;;;7.93;;
55053;SDS011;40954;45.668;18.980;2023-04-06T04:26:55;13.13;;;9.25;;
55053;SDS011;40954;45.668;18.980;2023-04-06T04:29:22;12.10;;;8.40;;
55053;SDS011;40954;45.668;18.980;2023-04-06T04:31:51;15.02;;;9.52;;
55053;SDS011;40954;45.668;18.980;2023-04-06T04:34:17;14.55;;;10.02;;
55053;SDS011;40954;45.668;18.980;2023-04-06T04:36:45;17.67;;;9.75;;
55053;SDS011;40954;45.668;18.980;2023-04-06T04:39:11;19.20;;;11.48;;
55053;SDS011;40954;45.668;18.980;2023-04-06T04:41:37;24.98;;;14.10;;
55053;SDS011;40954;45.668;18.980;2023-04-06T04:44:03;18.20;;;10.77;;
55053;SDS011;40954;45.668;18.980;2023-04-06T04:46:29;16.33;;;10.43;;
55053;SDS011;40954;45.668;18.980;2023-04-06T04:48:56;17.38;;;10.50;;
55053;SDS011;40954;45.668;18.980;2023-04-06T04:51:22;17.58;;;10.70;;
55053;SDS011;40954;45.668;18.980;2023-04-06T04:53:49;17.02;;;9.98;;
55053;SDS011;40954;45.668;18.980;2023-04-06T04:56:15;17.80;;;10.40;;
55053;SDS011;40954;45.668;18.980;2023-04-06T04:58:41;16.60;;;10.82;;
55053;SDS011;40954;45.668;18.980;2023-04-06T05:01:07;17.42;;;11.52;;
55053;SDS011;40954;45.668;18.980;2023-04-06T05:03:34;27.35;;;15.27;;
55053;SDS011;40954;45.668;18.980;2023-04-06T05:06:00;32.63;;;16.98;;
55053;SDS011;40954;45.668;18.980;2023-04-06T05:08:27;33.65;;;17.05;;
55053;SDS011;40954;45.668;18.980;2023-04-06T05:10:53;33.75;;;18.67;;
55053;SDS011;40954;45.668;18.980;2023-04-06T05:13:19;35.17;;;19.50;;
55053;SDS011;40954;45.668;18.980;2023-04-06T05:15:45;32.50;;;20.00;;
55053;SDS011;40954;45.668;18.980;2023-04-06T05:18:11;33.75;;;19.42;;
55053;SDS011;40954;45.668;18.980;2023-04-06T05:20:38;40.03;;;20.73;;
55053;SDS011;40954;45.668;18.980;2023-04-06T05:23:04;36.22;;;19.95;;
55053;SDS011;40954;45.668;18.980;2023-04-06T05:25:30;49.75;;;22.75;;
55053;SDS011;40954;45.668;18.980;2023-04-06T05:27:56;45.88;;;23.27;;
55053;SDS011;40954;45.668;18.980;2023-04-06T05:30:22;49.28;;;24.73;;
55053;SDS011;40954;45.668;18.980;2023-04-06T05:32:48;54.95;;;24.65;;
55053;SDS011;40954;45.668;18.980;2023-04-06T05:35:14;67.10;;;30.05;;
55053;SDS011;40954;45.668;18.980;2023-04-06T05:37:42;68.93;;;30.48;;
55053;SDS011;40954;45.668;18.980;2023-04-06T05:40:08;60.38;;;29.48;;
55053;SDS011;40954;45.668;18.980;2023-04-06T05:42:37;66.68;;;31.48;;
55053;SDS011;40954;45.668;18.980;2023-04-06T05:45:04;62.05;;;33.38;;
55053;SDS011;40954;45.668;18.980;2023-04-06T05:47:30;137.85;;;72.65;;
55053;SDS011;40954;45.668;18.980;2023-04-06T05:49:56;76.35;;;36.78;;
55053;SDS011;40954;45.668;18.980;2023-04-06T05:52:22;73.53;;;36.00;;
55053;SDS011;40954;45.668;18.980;2023-04-06T05:54:48;67.50;;;32.75;;
55053;SDS011;40954;45.668;18.980;2023-04-06T05:57:15;52.08;;;26.23;;
55053;SDS011;40954;45.668;18.980;2023-04-06T05:59:41;55.75;;;28.30;;
55053;SDS011;40954;45.668;18.980;2023-04-06T06:02:07;39.45;;;23.02;;
55053;SDS011;40954;45.668;18.980;2023-04-06T06:04:33;35.03;;;20.17;;
55053;SDS011;40954;45.668;18.980;2023-04-06T06:07:00;44.38;;;22.25;;
55053;SDS011;40954;45.668;18.980;2023-04-06T06:09:26;38.75;;;19.63;;
55053;SDS011;40954;45.668;18.980;2023-04-06T06:11:52;34.70;;;17.77;;
55053;SDS011;40954;45.668;18.980;2023-04-06T06:14:18;29.80;;;18.05;;
55053;SDS011;40954;45.668;18.980;2023-04-06T06:16:45;27.45;;;15.13;;
55053;SDS011;40954;45.668;18.980;2023-04-06T06:19:11;31.98;;;14.93;;
55053;SDS011;40954;45.668;18.980;2023-04-06T06:21:37;26.08;;;15.32;;
55053;SDS011;40954;45.668;18.980;2023-04-06T06:24:03;24.67;;;13.38;;
55053;SDS011;40954;45.668;18.980;2023-04-06T06:26:29;21.73;;;12.93;;
55053;SDS011;40954;45.668;18.980;2023-04-06T06:28:56;19.00;;;11.63;;
55053;SDS011;40954;45.668;18.980;2023-04-06T06:31:22;15.07;;;10.45;;
55053;SDS011;40954;45.668;18.980;2023-04-06T06:33:49;17.30;;;11.50;;
55053;SDS011;40954;45.668;18.980;2023-04-06T06:36:19;14.45;;;9.10;;
55053;SDS011;40954;45.668;18.980;2023-04-06T06:38:45;16.75;;;9.85;;
55053;SDS011;40954;45.668;18.980;2023-04-06T06:41:11;16.05;;;10.98;;
55053;SDS011;40954;45.668;18.980;2023-04-06T06:43:37;15.05;;;10.27;;
55053;SDS011;40954;45.668;18.980;2023-04-06T06:46:03;14.07;;;9.30;;
55053;SDS011;40954;45.668;18.980;2023-04-06T06:48:29;13.00;;;8.40;;
55053;SDS011;40954;45.668;18.980;2023-04-06T06:50:56;10.85;;;8.13;;
55053;SDS011;40954;45.668;18.980;2023-04-06T06:53:22;12.80;;;8.35;;
55053;SDS011;40954;45.668;18.980;2023-04-06T06:55:49;17.73;;;9.63;;
55053;SDS011;40954;45.668;18.980;2023-04-06T06:58:15;12.85;;;8.90;;
55053;SDS011;40954;45.668;18.980;2023-04-06T07:00:41;13.38;;;8.75;;
55053;SDS011;40954;45.668;18.980;2023-04-06T07:03:07;11.63;;;8.82;;
55053;SDS011;40954;45.668;18.980;2023-04-06T07:05:33;12.38;;;9.30;;
55053;SDS011;40954;45.668;18.980;2023-04-06T07:07:59;15.68;;;10.32;;
55053;SDS011;40954;45.668;18.980;2023-04-06T07:10:26;12.60;;;9.00;;
55053;SDS011;40954;45.668;18.980;2023-04-06T07:12:52;16.35;;;10.27;;
55053;SDS011;40954;45.668;18.980;2023-04-06T07:15:18;14.00;;;9.45;;
55053;SDS011;40954;45.668;18.980;2023-04-06T07:17:44;10.15;;;7.95;;
55053;SDS011;40954;45.668;18.980;2023-04-06T07:20:11;11.55;;;8.52;;
55053;SDS011;40954;45.668;18.980;2023-04-06T07:22:37;9.82;;;7.22;;
55053;SDS011;40954;45.668;18.980;2023-04-06T07:25:04;10.93;;;7.35;;
55053;SDS011;40954;45.668;18.980;2023-04-06T07:27:30;11.05;;;7.95;;
55053;SDS011;40954;45.668;18.980;2023-04-06T07:29:56;13.07;;;8.00;;
55053;SDS011;40954;45.668;18.980;2023-04-06T07:32:22;11.43;;;7.72;;
55053;SDS011;40954;45.668;18.980;2023-04-06T07:34:48;14.38;;;8.20;;
55053;SDS011;40954;45.668;18.980;2023-04-06T07:37:14;11.00;;;7.75;;
55053;SDS011;40954;45.668;18.980;2023-04-06T07:39:40;9.93;;;7.05;;
55053;SDS011;40954;45.668;18.980;2023-04-06T07:42:06;11.30;;;7.95;;
55053;SDS011;40954;45.668;18.980;2023-04-06T07:44:32;14.18;;;7.70;;
55053;SDS011;40954;45.668;18.980;2023-04-06T07:46:58;8.98;;;7.40;;
55053;SDS011;40954;45.668;18.980;2023-04-06T07:49:25;10.32;;;7.30;;
55053;SDS011;40954;45.668;18.980;2023-04-06T07:51:51;9.00;;;7.32;;
55053;SDS011;40954;45.668;18.980;2023-04-06T07:54:17;11.27;;;7.53;;
55053;SDS011;40954;45.668;18.980;2023-04-06T07:56:43;8.52;;;7.15;;
55053;SDS011;40954;45.668;18.980;2023-04-06T07:59:09;9.55;;;7.03;;
55053;SDS011;40954;45.668;18.980;2023-04-06T08:01:36;8.32;;;6.55;;
55053;SDS011;40954;45.668;18.980;2023-04-06T08:04:02;10.52;;;7.80;;
55053;SDS011;40954;45.668;18.980;2023-04-06T08:06:28;10.77;;;6.45;;
55053;SDS011;40954;45.668;18.980;2023-04-06T08:08:55;8.85;;;7.32;;
55053;SDS011;40954;45.668;18.980;2023-04-06T08:11:21;9.80;;;6.70;;
55053;SDS011;40954;45.668;18.980;2023-04-06T08:13:47;7.32;;;6.50;;
55053;SDS011;40954;45.668;18.980;2023-04-06T08:16:13;13.00;;;8.75;;
55053;SDS011;40954;45.668;18.980;2023-04-06T08:18:40;13.25;;;8.35;;
55053;SDS011;40954;45.668;18.980;2023-04-06T08:21:06;9.35;;;7.10;;
55053;SDS011;40954;45.668;18.980;2023-04-06T08:23:32;8.95;;;7.25;;
55053;SDS011;40954;45.668;18.980;2023-04-06T08:25:58;9.90;;;6.63;;
55053;SDS011;40954;45.668;18.980;2023-04-06T08:28:24;9.32;;;6.38;;
55053;SDS011;40954;45.668;18.980;2023-04-06T08:30:50;15.95;;;9.15;;
55053;SDS011;40954;45.668;18.980;2023-04-06T08:33:16;9.10;;;7.30;;
55053;SDS011;40954;45.668;18.980;2023-04-06T08:35:42;9.82;;;7.53;;
55053;SDS011;40954;45.668;18.980;2023-04-06T08:38:08;7.50;;;6.70;;
55053;SDS011;40954;45.668;18.980;2023-04-06T08:40:37;8.20;;;6.25;;
55053;SDS011;40954;45.668;18.980;2023-04-06T08:43:03;8.75;;;6.40;;
55053;SDS011;40954;45.668;18.980;2023-04-06T08:45:33;8.85;;;6.20;;
55053;SDS011;40954;45.668;18.980;2023-04-06T08:48:00;58.97;;;20.50;;
55053;SDS011;40954;45.668;18.980;2023-04-06T08:50:27;8.30;;;6.00;;
55053;SDS011;40954;45.668;18.980;2023-04-06T08:52:53;16.05;;;8.52;;
55053;SDS011;40954;45.668;18.980;2023-04-06T08:55:19;11.07;;;7.65;;
55053;SDS011;40954;45.668;18.980;2023-04-06T08:57:45;11.05;;;7.47;;
55053;SDS011;40954;45.668;18.980;2023-04-06T09:00:12;8.48;;;6.82;;
55053;SDS011;40954;45.668;18.980;2023-04-06T09:02:39;10.48;;;6.13;;
55053;SDS011;40954;45.668;18.980;2023-04-06T09:05:06;8.98;;;6.90;;
55053;SDS011;40954;45.668;18.980;2023-04-06T09:07:33;7.03;;;5.72;;
55053;SDS011;40954;45.668;18.980;2023-04-06T09:09:59;9.68;;;6.60;;
55053;SDS011;40954;45.668;18.980;2023-04-06T09:12:29;6.78;;;6.13;;
55053;SDS011;40954;45.668;18.980;2023-04-06T09:14:56;6.72;;;6.00;;
55053;SDS011;40954;45.668;18.980;2023-04-06T09:17:26;8.00;;;5.93;;
55053;SDS011;40954;45.668;18.980;2023-04-06T09:19:52;6.75;;;5.97;;
55053;SDS011;40954;45.668;18.980;2023-04-06T09:22:18;7.28;;;5.53;;
55053;SDS011;40954;45.668;18.980;2023-04-06T09:27:11;8.23;;;6.50;;
55053;SDS011;40954;45.668;18.980;2023-04-06T09:29:37;7.40;;;6.28;;
55053;SDS011;40954;45.668;18.980;2023-04-06T09:32:07;6.80;;;6.10;;
55053;SDS011;40954;45.668;18.980;2023-04-06T09:34:35;7.93;;;5.97;;
55053;SDS011;40954;45.668;18.980;2023-04-06T09:37:11;7.65;;;6.05;;
55053;SDS011;40954;45.668;18.980;2023-04-06T09:39:37;7.03;;;6.32;;
55053;SDS011;40954;45.668;18.980;2023-04-06T09:42:03;7.88;;;6.18;;
55053;SDS011;40954;45.668;18.980;2023-04-06T09:44:29;7.40;;;6.35;;
55053;SDS011;40954;45.668;18.980;2023-04-06T09:46:55;11.98;;;7.82;;
55053;SDS011;40954;45.668;18.980;2023-04-06T09:49:22;9.48;;;7.68;;
55053;SDS011;40954;45.668;18.980;2023-04-06T09:52:01;9.77;;;7.97;;
55053;SDS011;40954;45.668;18.980;2023-04-06T09:54:29;11.57;;;8.30;;
55053;SDS011;40954;45.668;18.980;2023-04-06T10:01:54;8.55;;;7.47;;
55053;SDS011;40954;45.668;18.980;2023-04-06T10:04:30;10.18;;;7.53;;
55053;SDS011;40954;45.668;18.980;2023-04-06T10:06:59;15.50;;;8.48;;
55053;SDS011;40954;45.668;18.980;2023-04-06T10:09:25;20.42;;;11.68;;
55053;SDS011;40954;45.668;18.980;2023-04-06T10:12:00;11.57;;;9.13;;
55053;SDS011;40954;45.668;18.980;2023-04-06T10:14:26;16.50;;;10.90;;
55053;SDS011;40954;45.668;18.980;2023-04-06T10:16:52;9.50;;;8.50;;
55053;SDS011;40954;45.668;18.980;2023-04-06T10:19:21;12.48;;;6.78;;
55053;SDS011;40954;45.668;18.980;2023-04-06T10:21:49;7.65;;;6.45;;
55053;SDS011;40954;45.668;18.980;2023-04-06T10:24:16;10.27;;;6.93;;
55053;SDS011;40954;45.668;18.980;2023-04-06T10:26:43;12.50;;;6.95;;
55053;SDS011;40954;45.668;18.980;2023-04-06T10:29:09;7.95;;;6.97;;
55053;SDS011;40954;45.668;18.980;2023-04-06T10:31:39;7.25;;;6.07;;
55053;SDS011;40954;45.668;18.980;2023-04-06T10:34:05;9.07;;;6.32;;
55053;SDS011;40954;45.668;18.980;2023-04-06T10:36:32;9.85;;;7.13;;
55053;SDS011;40954;45.668;18.980;2023-04-06T10:38:59;7.82;;;6.68;;
55053;SDS011;40954;45.668;18.980;2023-04-06T10:41:36;8.73;;;6.53;;
55053;SDS011;40954;45.668;18.980;2023-04-06T10:44:02;8.32;;;6.70;;
55053;SDS011;40954;45.668;18.980;2023-04-06T10:46:29;8.93;;;7.13;;
55053;SDS011;40954;45.668;18.980;2023-04-06T10:48:56;9.10;;;6.32;;
55053;SDS011;40954;45.668;18.980;2023-04-06T10:51:26;9.05;;;6.55;;
55053;SDS011;40954;45.668;18.980;2023-04-06T10:53:52;7.20;;;6.50;;
55053;SDS011;40954;45.668;18.980;2023-04-06T10:56:21;9.55;;;6.45;;
55053;SDS011;40954;45.668;18.980;2023-04-06T10:58:48;9.32;;;6.97;;
55053;SDS011;40954;45.668;18.980;2023-04-06T11:01:21;9.52;;;6.82;;
55053;SDS011;40954;45.668;18.980;2023-04-06T11:03:51;8.50;;;6.32;;
55053;SDS011;40954;45.668;18.980;2023-04-06T11:06:18;8.43;;;6.13;;
55053;SDS011;40954;45.668;18.980;2023-04-06T11:08:44;7.13;;;5.68;;
55053;SDS011;40954;45.668;18.980;2023-04-06T11:11:11;11.15;;;6.90;;
55053;SDS011;40954;45.668;18.980;2023-04-06T11:16:29;8.85;;;5.63;;
55053;SDS011;40954;45.668;18.980;2023-04-06T11:18:56;6.00;;;4.90;;
55053;SDS011;40954;45.668;18.980;2023-04-06T11:21:41;7.30;;;5.38;;
55053;SDS011;40954;45.668;18.980;2023-04-06T11:24:15;8.85;;;5.78;;
55053;SDS011;40954;45.668;18.980;2023-04-06T11:26:48;8.82;;;6.50;;
55053;SDS011;40954;45.668;18.980;2023-04-06T11:29:19;9.73;;;7.18;;
55053;SDS011;40954;45.668;18.980;2023-04-06T11:31:50;8.82;;;6.40;;
55053;SDS011;40954;45.668;18.980;2023-04-06T11:34:20;9.23;;;7.70;;
55053;SDS011;40954;45.668;18.980;2023-04-06T11:36:47;8.68;;;6.95;;
55053;SDS011;40954;45.668;18.980;2023-04-06T11:39:13;10.68;;;7.28;;
55053;SDS011;40954;45.668;18.980;2023-04-06T11:41:47;8.77;;;6.70;;
55053;SDS011;40954;45.668;18.980;2023-04-06T11:44:13;9.80;;;6.75;;
55053;SDS011;40954;45.668;18.980;2023-04-06T11:46:39;8.68;;;6.38;;
55053;SDS011;40954;45.668;18.980;2023-04-06T11:49:05;7.97;;;6.32;;
55053;SDS011;40954;45.668;18.980;2023-04-06T11:51:35;8.70;;;6.45;;
55053;SDS011;40954;45.668;18.980;2023-04-06T11:54:01;9.35;;;6.57;;
55053;SDS011;40954;45.668;18.980;2023-04-06T11:56:28;7.43;;;6.05;;
55053;SDS011;40954;45.668;18.980;2023-04-06T11:58:55;10.10;;;6.60;;
55053;SDS011;40954;45.668;18.980;2023-04-06T12:01:21;7.85;;;6.47;;
55053;SDS011;40954;45.668;18.980;2023-04-06T12:03:47;10.02;;;5.85;;
55053;SDS011;40954;45.668;18.980;2023-04-06T12:06:14;7.78;;;6.38;;
55053;SDS011;40954;45.668;18.980;2023-04-06T12:08:40;7.22;;;6.05;;
55053;SDS011;40954;45.668;18.980;2023-04-06T12:11:06;10.57;;;6.38;;
55053;SDS011;40954;45.668;18.980;2023-04-06T12:13:32;7.70;;;6.43;;
55053;SDS011;40954;45.668;18.980;2023-04-06T12:15:58;6.65;;;5.53;;
55053;SDS011;40954;45.668;18.980;2023-04-06T12:18:24;8.45;;;6.72;;
55053;SDS011;40954;45.668;18.980;2023-04-06T12:20:51;9.55;;;5.93;;
55053;SDS011;40954;45.668;18.980;2023-04-06T12:23:18;10.80;;;7.03;;
55053;SDS011;40954;45.668;18.980;2023-04-06T12:25:44;10.93;;;7.10;;
55053;SDS011;40954;45.668;18.980;2023-04-06T12:28:11;6.93;;;5.90;;
55053;SDS011;40954;45.668;18.980;2023-04-06T12:30:37;8.15;;;5.90;;
55053;SDS011;40954;45.668;18.980;2023-04-06T12:33:03;13.10;;;6.18;;
55053;SDS011;40954;45.668;18.980;2023-04-06T12:35:32;8.55;;;5.88;;
55053;SDS011;40954;45.668;18.980;2023-04-06T12:37:59;8.85;;;5.70;;
55053;SDS011;40954;45.668;18.980;2023-04-06T12:40:25;9.57;;;5.72;;
55053;SDS011;40954;45.668;18.980;2023-04-06T12:42:51;7.35;;;5.80;;
55053;SDS011;40954;45.668;18.980;2023-04-06T12:45:17;11.18;;;6.00;;
55053;SDS011;40954;45.668;18.980;2023-04-06T12:47:43;8.50;;;5.90;;
55053;SDS011;40954;45.668;18.980;2023-04-06T12:50:09;7.20;;;5.13;;
55053;SDS011;40954;45.668;18.980;2023-04-06T12:52:35;9.90;;;5.82;;
55053;SDS011;40954;45.668;18.980;2023-04-06T12:55:02;7.00;;;5.68;;
55053;SDS011;40954;45.668;18.980;2023-04-06T12:57:29;6.72;;;5.10;;
55053;SDS011;40954;45.668;18.980;2023-04-06T12:59:56;8.48;;;5.70;;
55053;SDS011;40954;45.668;18.980;2023-04-06T13:02:22;7.30;;;5.60;;
55053;SDS011;40954;45.668;18.980;2023-04-06T13:04:49;9.50;;;7.47;;
55053;SDS011;40954;45.668;18.980;2023-04-06T13:07:15;8.45;;;6.18;;
55053;SDS011;40954;45.668;18.980;2023-04-06T13:09:41;5.30;;;4.80;;
55053;SDS011;40954;45.668;18.980;2023-04-06T13:12:07;5.88;;;4.75;;
55053;SDS011;40954;45.668;18.980;2023-04-06T13:14:33;9.50;;;5.80;;
55053;SDS011;40954;45.668;18.980;2023-04-06T13:16:59;10.07;;;5.38;;
55053;SDS011;40954;45.668;18.980;2023-04-06T13:19:25;7.32;;;4.93;;
55053;SDS011;40954;45.668;18.980;2023-04-06T13:21:52;6.95;;;4.32;;
55053;SDS011;40954;45.668;18.980;2023-04-06T13:24:18;6.50;;;4.90;;
55053;SDS011;40954;45.668;18.980;2023-04-06T13:26:44;5.90;;;5.30;;
55053;SDS011;40954;45.668;18.980;2023-04-06T13:29:10;8.60;;;6.18;;
55053;SDS011;40954;45.668;18.980;2023-04-06T13:31:37;6.72;;;5.70;;
55053;SDS011;40954;45.668;18.980;2023-04-06T13:34:03;9.15;;;5.40;;
55053;SDS011;40954;45.668;18.980;2023-04-06T13:36:29;8.07;;;5.40;;
55053;SDS011;40954;45.668;18.980;2023-04-06T13:38:57;6.25;;;5.05;;
55053;SDS011;40954;45.668;18.980;2023-04-06T13:41:23;11.25;;;6.10;;
55053;SDS011;40954;45.668;18.980;2023-04-06T13:43:51;9.35;;;6.00;;
55053;SDS011;40954;45.668;18.980;2023-04-06T13:46:17;7.82;;;6.18;;
55053;SDS011;40954;45.668;18.980;2023-04-06T13:48:43;7.30;;;5.93;;
55053;SDS011;40954;45.668;18.980;2023-04-06T13:51:10;12.25;;;6.13;;
55053;SDS011;40954;45.668;18.980;2023-04-06T13:53:36;9.90;;;6.32;;
55053;SDS011;40954;45.668;18.980;2023-04-06T13:56:02;7.00;;;6.25;;
55053;SDS011;40954;45.668;18.980;2023-04-06T13:58:28;8.45;;;5.75;;
55053;SDS011;40954;45.668;18.980;2023-04-06T14:00:54;7.72;;;6.00;;
55053;SDS011;40954;45.668;18.980;2023-04-06T14:03:21;10.20;;;6.63;;
55053;SDS011;40954;45.668;18.980;2023-04-06T14:05:48;7.45;;;6.22;;
55053;SDS011;40954;45.668;18.980;2023-04-06T14:08:14;8.98;;;5.55;;
55053;SDS011;40954;45.668;18.980;2023-04-06T14:10:40;9.32;;;5.18;;
55053;SDS011;40954;45.668;18.980;2023-04-06T14:13:09;7.45;;;5.30;;
55053;SDS011;40954;45.668;18.980;2023-04-06T14:15:36;5.93;;;5.40;;
55053;SDS011;40954;45.668;18.980;2023-04-06T14:18:03;10.25;;;6.15;;
55053;SDS011;40954;45.668;18.980;2023-04-06T14:20:30;6.70;;;5.25;;
55053;SDS011;40954;45.668;18.980;2023-04-06T14:22:56;7.35;;;4.65;;
55053;SDS011;40954;45.668;18.980;2023-04-06T14:25:22;6.10;;;5.25;;
55053;SDS011;40954;45.668;18.980;2023-04-06T14:27:48;8.00;;;5.72;;
55053;SDS011;40954;45.668;18.980;2023-04-06T14:30:14;7.68;;;5.88;;